Terminal Aerodrome Forecast
Issued by NWS

Home | Current Version | Previous Version | Text Only | Print | Product List | Glossary On
Versions: 1 2 3 4 5 6 7 8 9 10 11 12 13 14 15
000
FTUS43 KAPX 281720
TAFMBL
TAF
KMBL 281720Z 2818/2918 21007KT P6SM BKN250
     FM281900 28007KT P6SM BKN250
     FM290000 18003KT P6SM BKN250
     FM291200 17004KT P6SM SCT050 BKN100 BKN200
     FM291700 23006KT P6SM SCT080
      AMD LTD TO CLD VIS AND WIND=

USA.gov is the U.S. government's official web portal to all federal, state and local government web resources and services.